TimeCDT,TemperatureF,Dew PointF,Humidity,Sea Level PressureIn,VisibilityMPH,Wind Direction,Wind SpeedMPH,Gust SpeedMPH,PrecipitationIn,Events,Conditions,WindDirDegrees,DateUTC
12:15 AM,58.1,50.4,75,30.16,10.0,SE,11.5,-,N/A,,Clear,130,2013-06-13 05:15:00
12:35 AM,57.6,50.4,77,30.15,10.0,ESE,13.8,-,N/A,,Clear,120,2013-06-13 05:35:00
12:55 AM,57.2,50.2,77,30.15,10.0,SE,15.0,19.6,N/A,,Clear,130,2013-06-13 05:55:00
1:15 AM,56.5,50.2,79,30.15,10.0,SE,12.7,-,N/A,,Clear,130,2013-06-13 06:15:00
1:35 AM,55.4,50.0,82,30.17,10.0,SE,11.5,-,N/A,,Clear,140,2013-06-13 06:35:00
1:55 AM,55.4,50.0,82,30.16,10.0,SE,11.5,17.3,N/A,,Clear,130,2013-06-13 06:55:00
2:15 AM,54.5,49.6,84,30.16,10.0,SE,9.2,-,N/A,,Clear,140,2013-06-13 07:15:00
2:35 AM,55.0,49.6,82,30.17,10.0,SE,8.1,-,N/A,,Clear,140,2013-06-13 07:35:00
2:55 AM,53.6,49.3,85,30.19,10.0,Calm,Calm,-,N/A,,Clear,0,2013-06-13 07:55:00
3:15 AM,51.8,48.6,89,30.19,10.0,ENE,3.5,-,N/A,,Clear,60,2013-06-13 08:15:00
3:35 AM,51.1,48.4,90,30.17,10.0,ENE,3.5,-,N/A,,Clear,70,2013-06-13 08:35:00
3:55 AM,50.9,48.2,90,30.17,10.0,NE,3.5,-,N/A,,Clear,50,2013-06-13 08:55:00
4:15 AM,50.0,47.5,91,30.18,10.0,ENE,3.5,-,N/A,,Clear,70,2013-06-13 09:15:00
4:35 AM,49.3,47.3,93,30.17,10.0,East,6.9,-,N/A,,Clear,100,2013-06-13 09:35:00
4:55 AM,49.6,47.7,93,30.17,10.0,East,6.9,-,N/A,,Clear,100,2013-06-13 09:55:00
5:15 AM,50.7,48.6,92,30.17,10.0,ESE,4.6,-,N/A,,Clear,110,2013-06-13 10:15:00
5:35 AM,50.2,48.2,93,30.17,10.0,ESE,3.5,-,N/A,,Clear,110,2013-06-13 10:35:00
5:55 AM,49.1,47.3,93,30.17,10.0,Calm,Calm,-,N/A,,Clear,0,2013-06-13 10:55:00
6:15 AM,49.6,48.2,95,30.17,10.0,ESE,8.1,-,N/A,,Clear,120,2013-06-13 11:15:00
6:35 AM,50.0,48.2,94,30.17,10.0,ESE,8.1,-,N/A,,Clear,120,2013-06-13 11:35:00
6:55 AM,50.5,48.6,93,30.17,10.0,SE,8.1,-,N/A,,Clear,130,2013-06-13 11:55:00
7:15 AM,50.5,48.6,93,30.17,10.0,ESE,9.2,-,N/A,,Scattered Clouds,120,2013-06-13 12:15:00
7:35 AM,51.3,49.1,92,30.16,10.0,SE,10.4,-,N/A,,Scattered Clouds,130,2013-06-13 12:35:00
7:55 AM,52.3,49.5,90,30.16,10.0,SE,12.7,-,N/A,,Clear,140,2013-06-13 12:55:00
8:15 AM,53.4,50.0,88,30.16,10.0,SE,13.8,-,N/A,,Scattered Clouds,140,2013-06-13 13:15:00
8:35 AM,55.2,49.6,81,30.16,10.0,SE,19.6,-,N/A,,Mostly Cloudy,140,2013-06-13 13:35:00
8:55 AM,55.2,49.3,80,30.17,10.0,SSE,18.4,-,N/A,,Mostly Cloudy,150,2013-06-13 13:55:00
9:15 AM,56.3,49.5,78,30.16,10.0,SSE,19.6,23.0,N/A,,Mostly Cloudy,160,2013-06-13 14:15:00
9:35 AM,56.5,49.3,77,30.16,10.0,SSE,16.1,-,N/A,,Overcast,160,2013-06-13 14:35:00
9:55 AM,57.4,49.6,75,30.16,10.0,SSE,16.1,23.0,N/A,,Overcast,160,2013-06-13 14:55:00
10:15 AM,56.7,49.6,77,30.16,10.0,SSE,18.4,-,N/A,,Overcast,160,2013-06-13 15:15:00
10:35 AM,56.3,50.0,79,30.15,10.0,SSE,18.4,21.9,N/A,,Overcast,160,2013-06-13 15:35:00
10:55 AM,57.7,50.4,76,30.15,10.0,SSE,17.3,24.2,N/A,,Overcast,150,2013-06-13 15:55:00
11:15 AM,59.0,50.9,74,30.15,10.0,SSE,16.1,-,N/A,,Overcast,160,2013-06-13 16:15:00
11:35 AM,61.3,51.6,70,30.15,10.0,SSE,18.4,-,N/A,,Overcast,160,2013-06-13 16:35:00
11:55 AM,63.5,52.5,67,30.14,10.0,South,16.1,-,N/A,,Overcast,180,2013-06-13 16:55:00
12:15 PM,64.2,52.3,65,30.13,10.0,South,16.1,20.7,N/A,,Scattered Clouds,170,2013-06-13 17:15:00
12:35 PM,66.4,52.7,61,30.12,10.0,SSE,13.8,20.7,N/A,,Scattered Clouds,160,2013-06-13 17:35:00
12:55 PM,67.3,52.9,60,30.11,10.0,SSE,13.8,20.7,N/A,,Clear,160,2013-06-13 17:55:00
1:15 PM,69.8,53.2,56,30.10,7.0,SSE,16.1,20.7,N/A,,Clear,160,2013-06-13 18:15:00
1:35 PM,72.0,53.1,51,30.10,10.0,SSE,13.8,21.9,N/A,,Clear,160,2013-06-13 18:35:00
1:55 PM,73.8,53.2,49,30.09,10.0,SSE,11.5,21.9,N/A,,Clear,150,2013-06-13 18:55:00
2:15 PM,75.2,52.7,45,30.08,10.0,South,12.7,19.6,N/A,,Clear,190,2013-06-13 19:15:00
2:35 PM,76.1,52.7,44,30.07,10.0,SSE,17.3,21.9,N/A,,Clear,160,2013-06-13 19:35:00
2:55 PM,77.4,52.0,41,30.06,10.0,South,13.8,21.9,N/A,,Clear,170,2013-06-13 19:55:00
3:15 PM,78.6,52.0,39,30.05,10.0,SSE,13.8,23.0,N/A,,Clear,160,2013-06-13 20:15:00
3:35 PM,79.2,51.4,38,30.05,10.0,SSE,16.1,21.9,N/A,,Clear,150,2013-06-13 20:35:00
3:55 PM,80.2,51.8,37,30.04,10.0,ESE,12.7,19.6,N/A,,Clear,120,2013-06-13 20:55:00
4:15 PM,80.8,50.9,35,30.03,10.0,SSE,16.1,-,N/A,,Clear,150,2013-06-13 21:15:00
4:35 PM,81.5,51.1,35,30.02,10.0,SE,15.0,21.9,N/A,,Clear,140,2013-06-13 21:35:00
4:55 PM,81.5,50.4,34,30.01,10.0,SE,18.4,24.2,N/A,,Clear,140,2013-06-13 21:55:00
5:15 PM,82.0,50.7,34,30.02,10.0,SSE,16.1,25.3,N/A,,Clear,150,2013-06-13 22:15:00
5:35 PM,82.9,50.5,32,30.00,10.0,SE,20.7,27.6,N/A,,Clear,140,2013-06-13 22:35:00
5:55 PM,81.5,50.0,33,29.99,10.0,SE,18.4,24.2,N/A,,Clear,140,2013-06-13 22:55:00
6:15 PM,80.8,50.2,34,29.98,10.0,SE,18.4,24.2,N/A,,Clear,140,2013-06-13 23:15:00
6:35 PM,81.5,50.0,33,29.98,10.0,SSE,18.4,-,N/A,,Clear,150,2013-06-13 23:35:00
6:55 PM,80.8,50.0,34,29.96,10.0,SE,20.7,25.3,N/A,,Clear,140,2013-06-13 23:55:00
7:15 PM,78.8,50.2,37,29.96,10.0,SE,16.1,24.2,N/A,,Clear,130,2013-06-14 00:15:00
7:35 PM,77.9,50.4,38,29.95,10.0,ESE,11.5,15.0,N/A,,Clear,120,2013-06-14 00:35:00
7:55 PM,76.6,50.9,40,29.95,10.0,SE,11.5,-,N/A,,Clear,130,2013-06-14 00:55:00
8:15 PM,76.3,51.8,42,29.94,10.0,ESE,13.8,18.4,N/A,,Clear,120,2013-06-14 01:15:00
8:35 PM,76.1,52.2,43,29.95,10.0,ESE,15.0,19.6,N/A,,Clear,120,2013-06-14 01:35:00
8:55 PM,75.9,51.6,43,29.94,10.0,SE,16.1,-,N/A,,Clear,140,2013-06-14 01:55:00
9:15 PM,76.1,44.4,32,29.94,10.0,SSE,17.3,21.9,N/A,,Clear,150,2013-06-14 02:15:00
9:35 PM,72.5,46.0,39,29.96,10.0,South,17.3,-,N/A,,Clear,170,2013-06-14 02:35:00
9:55 PM,71.1,46.4,41,29.94,10.0,SSE,18.4,25.3,N/A,,Clear,150,2013-06-14 02:55:00
10:15 PM,71.6,44.8,38,29.96,10.0,SE,23.0,28.8,N/A,,Clear,140,2013-06-14 03:15:00
10:35 PM,70.7,46.6,42,29.95,10.0,SE,24.2,32.2,N/A,,Clear,140,2013-06-14 03:35:00
10:55 PM,70.9,46.8,42,29.94,10.0,SE,21.9,28.8,N/A,,Clear,130,2013-06-14 03:55:00
11:15 PM,69.8,48.2,46,29.95,10.0,SE,20.7,26.5,N/A,,Clear,140,2013-06-14 04:15:00
11:35 PM,68.2,49.3,51,29.95,10.0,SE,11.5,16.1,N/A,,Clear,140,2013-06-14 04:35:00
11:55 PM,68.2,48.2,49,29.95,10.0,SSE,10.4,-,N/A,,Clear,160,2013-06-14 04:55:00